sensor_id;sensor_type;location;lat;lon;timestamp;pressure;altitude;pressure_sealevel;temperature;humidity
9225;BME280;4647;48.072;11.616;2023-11-21T00:01:19;94795.72;;;7.18;75.85
9225;BME280;4647;48.072;11.616;2023-11-21T00:03:47;94795.75;;;7.14;76.25
9225;BME280;4647;48.072;11.616;2023-11-21T00:06:16;94786.41;;;7.26;75.80
9225;BME280;4647;48.072;11.616;2023-11-21T00:08:44;94781.16;;;7.08;77.13
9225;BME280;4647;48.072;11.616;2023-11-21T00:11:13;94768.31;;;7.26;75.97
9225;BME280;4647;48.072;11.616;2023-11-21T00:13:41;94761.75;;;6.90;77.85
9225;BME280;4647;48.072;11.616;2023-11-21T00:16:13;94787.72;;;7.07;78.26
9225;BME280;4647;48.072;11.616;2023-11-21T00:18:42;94777.81;;;6.97;79.19
9225;BME280;4647;48.072;11.616;2023-11-21T00:21:12;94764.28;;;7.04;79.18
9225;BME280;4647;48.072;11.616;2023-11-21T00:23:40;94778.50;;;7.04;79.42
9225;BME280;4647;48.072;11.616;2023-11-21T00:26:09;94774.72;;;6.98;79.89
9225;BME280;4647;48.072;11.616;2023-11-21T00:28:37;94766.22;;;7.03;79.81
9225;BME280;4647;48.072;11.616;2023-11-21T00:31:06;94755.81;;;7.05;80.07
9225;BME280;4647;48.072;11.616;2023-11-21T00:33:37;94756.97;;;7.04;80.40
9225;BME280;4647;48.072;11.616;2023-11-21T00:36:09;94752.69;;;7.11;80.13
9225;BME280;4647;48.072;11.616;2023-11-21T00:38:38;94750.78;;;7.07;80.18
9225;BME280;4647;48.072;11.616;2023-11-21T00:41:06;94752.69;;;7.11;80.57
9225;BME280;4647;48.072;11.616;2023-11-21T00:43:35;94741.56;;;7.05;80.46
9225;BME280;4647;48.072;11.616;2023-11-21T00:46:04;94743.84;;;7.10;80.58
9225;BME280;4647;48.072;11.616;2023-11-21T00:48:33;94740.72;;;7.15;80.40
9225;BME280;4647;48.072;11.616;2023-11-21T00:51:04;94733.09;;;7.10;80.71
9225;BME280;4647;48.072;11.616;2023-11-21T00:53:33;94730.88;;;6.98;81.32
9225;BME280;4647;48.072;11.616;2023-11-21T00:56:02;94737.72;;;7.06;80.66
9225;BME280;4647;48.072;11.616;2023-11-21T00:58:32;94739.28;;;7.03;81.09
9225;BME280;4647;48.072;11.616;2023-11-21T01:01:01;94748.53;;;7.02;81.49
9225;BME280;4647;48.072;11.616;2023-11-21T01:03:29;94738.44;;;6.69;82.78
9225;BME280;4647;48.072;11.616;2023-11-21T01:05:58;94727.47;;;6.45;83.62
9225;BME280;4647;48.072;11.616;2023-11-21T01:08:29;94741.91;;;6.69;83.03
9225;BME280;4647;48.072;11.616;2023-11-21T01:11:00;94740.31;;;6.75;82.36
9225;BME280;4647;48.072;11.616;2023-11-21T01:13:28;94741.56;;;6.60;83.36
9225;BME280;4647;48.072;11.616;2023-11-21T01:15:57;94731.44;;;6.30;84.87
9225;BME280;4647;48.072;11.616;2023-11-21T01:18:25;94738.03;;;6.22;85.74
9225;BME280;4647;48.072;11.616;2023-11-21T01:20:54;94730.22;;;6.42;84.40
9225;BME280;4647;48.072;11.616;2023-11-21T01:23:23;94722.94;;;6.39;84.56
9225;BME280;4647;48.072;11.616;2023-11-21T01:25:56;94727.88;;;6.44;84.14
9225;BME280;4647;48.072;11.616;2023-11-21T01:28:25;94725.97;;;6.41;84.34
9225;BME280;4647;48.072;11.616;2023-11-21T01:30:55;94732.88;;;6.45;83.87
9225;BME280;4647;48.072;11.616;2023-11-21T01:33:26;94733.31;;;6.33;84.25
9225;BME280;4647;48.072;11.616;2023-11-21T01:35:56;94727.25;;;6.22;84.96
9225;BME280;4647;48.072;11.616;2023-11-21T01:38:25;94736.22;;;6.01;86.22
9225;BME280;4647;48.072;11.616;2023-11-21T01:40:54;94743.09;;;6.09;85.85
9225;BME280;4647;48.072;11.616;2023-11-21T01:43:26;94741.19;;;6.06;86.07
9225;BME280;4647;48.072;11.616;2023-11-21T01:45:55;94734.66;;;6.07;86.18
9225;BME280;4647;48.072;11.616;2023-11-21T01:48:27;94741.13;;;6.21;85.55
9225;BME280;4647;48.072;11.616;2023-11-21T01:51:00;94729.97;;;6.22;85.26
9225;BME280;4647;48.072;11.616;2023-11-21T01:53:30;94737.97;;;6.29;85.32
9225;BME280;4647;48.072;11.616;2023-11-21T01:56:02;94741.00;;;6.35;85.18
9225;BME280;4647;48.072;11.616;2023-11-21T01:58:31;94741.41;;;6.30;85.36
9225;BME280;4647;48.072;11.616;2023-11-21T02:01:01;94741.91;;;6.14;85.84
9225;BME280;4647;48.072;11.616;2023-11-21T02:03:30;94743.00;;;6.24;85.77
9225;BME280;4647;48.072;11.616;2023-11-21T02:05:59;94730.03;;;6.08;85.79
9225;BME280;4647;48.072;11.616;2023-11-21T02:08:29;94730.78;;;6.15;85.83
9225;BME280;4647;48.072;11.616;2023-11-21T02:11:01;94731.25;;;6.00;86.16
9225;BME280;4647;48.072;11.616;2023-11-21T02:13:31;94734.88;;;6.31;84.55
9225;BME280;4647;48.072;11.616;2023-11-21T02:16:04;94742.94;;;6.31;83.88
9225;BME280;4647;48.072;11.616;2023-11-21T02:18:34;94744.09;;;6.33;83.82
9225;BME280;4647;48.072;11.616;2023-11-21T02:21:05;94746.34;;;6.42;83.25
9225;BME280;4647;48.072;11.616;2023-11-21T02:23:38;94727.16;;;6.40;83.14
9225;BME280;4647;48.072;11.616;2023-11-21T02:26:09;94729.00;;;6.46;82.45
9225;BME280;4647;48.072;11.616;2023-11-21T02:28:39;94735.88;;;6.51;81.79
9225;BME280;4647;48.072;11.616;2023-11-21T02:31:10;94728.91;;;6.57;80.98
9225;BME280;4647;48.072;11.616;2023-11-21T02:33:46;94731.56;;;6.64;80.54
9225;BME280;4647;48.072;11.616;2023-11-21T02:36:16;94737.25;;;6.73;79.70
9225;BME280;4647;48.072;11.616;2023-11-21T02:38:50;94724.53;;;6.77;80.08
9225;BME280;4647;48.072;11.616;2023-11-21T02:41:18;94736.25;;;6.98;78.84
9225;BME280;4647;48.072;11.616;2023-11-21T02:43:47;94736.00;;;7.23;77.92
9225;BME280;4647;48.072;11.616;2023-11-21T02:46:16;94742.28;;;7.13;78.70
9225;BME280;4647;48.072;11.616;2023-11-21T02:48:44;94750.38;;;7.09;80.06
9225;BME280;4647;48.072;11.616;2023-11-21T02:51:13;94747.44;;;6.96;81.34
9225;BME280;4647;48.072;11.616;2023-11-21T02:53:42;94746.66;;;6.96;80.70
9225;BME280;4647;48.072;11.616;2023-11-21T02:56:14;94743.09;;;7.06;81.04
9225;BME280;4647;48.072;11.616;2023-11-21T02:58:45;94743.06;;;7.09;81.79
9225;BME280;4647;48.072;11.616;2023-11-21T03:01:16;94743.81;;;7.14;82.02
9225;BME280;4647;48.072;11.616;2023-11-21T03:03:46;94729.72;;;6.99;83.73
9225;BME280;4647;48.072;11.616;2023-11-21T03:06:17;94722.91;;;6.87;83.63
9225;BME280;4647;48.072;11.616;2023-11-21T03:08:47;94698.75;;;6.76;84.03
9225;BME280;4647;48.072;11.616;2023-11-21T03:11:18;94715.59;;;6.84;84.45
9225;BME280;4647;48.072;11.616;2023-11-21T03:13:47;94715.59;;;6.88;84.90
9225;BME280;4647;48.072;11.616;2023-11-21T03:16:18;94718.69;;;6.83;85.18
9225;BME280;4647;48.072;11.616;2023-11-21T03:18:47;94719.91;;;6.78;85.80
9225;BME280;4647;48.072;11.616;2023-11-21T03:21:15;94710.44;;;6.63;86.22
9225;BME280;4647;48.072;11.616;2023-11-21T03:23:46;94713.34;;;6.79;85.22
9225;BME280;4647;48.072;11.616;2023-11-21T03:26:20;94719.75;;;6.96;84.80
9225;BME280;4647;48.072;11.616;2023-11-21T03:28:48;94715.59;;;6.88;85.24
9225;BME280;4647;48.072;11.616;2023-11-21T03:31:19;94690.44;;;6.64;85.15
9225;BME280;4647;48.072;11.616;2023-11-21T03:33:49;94709.44;;;6.87;85.28
9225;BME280;4647;48.072;11.616;2023-11-21T03:36:19;94710.69;;;6.75;85.28
9225;BME280;4647;48.072;11.616;2023-11-21T03:38:48;94708.47;;;6.67;85.30
9225;BME280;4647;48.072;11.616;2023-11-21T03:41:20;94709.19;;;6.71;86.18
9225;BME280;4647;48.072;11.616;2023-11-21T03:43:48;94702.25;;;6.73;86.45
9225;BME280;4647;48.072;11.616;2023-11-21T03:46:17;94705.50;;;6.54;86.50
9225;BME280;4647;48.072;11.616;2023-11-21T03:48:45;94698.09;;;6.65;86.20
9225;BME280;4647;48.072;11.616;2023-11-21T03:51:14;94708.88;;;6.62;86.55
9225;BME280;4647;48.072;11.616;2023-11-21T03:53:43;94709.28;;;6.60;86.73
9225;BME280;4647;48.072;11.616;2023-11-21T03:56:11;94715.31;;;6.75;85.76
9225;BME280;4647;48.072;11.616;2023-11-21T03:58:42;94713.47;;;6.68;86.30
9225;BME280;4647;48.072;11.616;2023-11-21T04:01:11;94711.56;;;6.62;86.04
9225;BME280;4647;48.072;11.616;2023-11-21T04:03:39;94702.72;;;6.61;86.38
9225;BME280;4647;48.072;11.616;2023-11-21T04:06:08;94709.28;;;6.64;86.12
9225;BME280;4647;48.072;11.616;2023-11-21T04:08:36;94721.97;;;6.60;87.08
9225;BME280;4647;48.072;11.616;2023-11-21T04:11:05;94717.34;;;6.60;86.51
9225;BME280;4647;48.072;11.616;2023-11-21T04:13:33;94716.88;;;6.72;85.93
9225;BME280;4647;48.072;11.616;2023-11-21T04:16:06;94708.38;;;6.77;85.00
9225;BME280;4647;48.072;11.616;2023-11-21T04:18:36;94701.75;;;6.86;84.84
9225;BME280;4647;48.072;11.616;2023-11-21T04:21:07;94706.47;;;6.74;85.08
9225;BME280;4647;48.072;11.616;2023-11-21T04:23:38;94712.94;;;6.81;85.29
9225;BME280;4647;48.072;11.616;2023-11-21T04:26:06;94720.63;;;6.82;84.90
9225;BME280;4647;48.072;11.616;2023-11-21T04:28:35;94719.44;;;6.87;85.02
9225;BME280;4647;48.072;11.616;2023-11-21T04:31:08;94726.81;;;6.79;85.05
9225;BME280;4647;48.072;11.616;2023-11-21T04:33:36;94721.41;;;6.83;84.96
9225;BME280;4647;48.072;11.616;2023-11-21T04:36:05;94728.66;;;6.86;85.23
9225;BME280;4647;48.072;11.616;2023-11-21T04:38:34;94731.34;;;6.89;85.48
9225;BME280;4647;48.072;11.616;2023-11-21T04:41:02;94724.09;;;6.83;85.71
9225;BME280;4647;48.072;11.616;2023-11-21T04:43:31;94727.91;;;6.89;85.13
9225;BME280;4647;48.072;11.616;2023-11-21T04:46:00;94727.53;;;6.83;85.39
9225;BME280;4647;48.072;11.616;2023-11-21T04:48:35;94718.72;;;6.79;85.89
9225;BME280;4647;48.072;11.616;2023-11-21T04:51:04;94727.56;;;6.80;86.33
9225;BME280;4647;48.072;11.616;2023-11-21T04:53:33;94723.75;;;6.77;85.80
9225;BME280;4647;48.072;11.616;2023-11-21T04:56:02;94722.72;;;6.64;86.65
9225;BME280;4647;48.072;11.616;2023-11-21T04:58:31;94716.94;;;6.65;86.82
9225;BME280;4647;48.072;11.616;2023-11-21T05:01:01;94724.22;;;6.68;86.50
9225;BME280;4647;48.072;11.616;2023-11-21T05:03:29;94687.41;;;6.55;86.12
9225;BME280;4647;48.072;11.616;2023-11-21T05:06:01;94713.91;;;6.60;86.46
9225;BME280;4647;48.072;11.616;2023-11-21T05:08:30;94702.50;;;6.45;87.17
9225;BME280;4647;48.072;11.616;2023-11-21T05:10:59;94725.47;;;6.57;87.37
9225;BME280;4647;48.072;11.616;2023-11-21T05:13:28;94725.88;;;6.52;87.75
9225;BME280;4647;48.072;11.616;2023-11-21T05:15:56;94714.00;;;6.49;87.83
9225;BME280;4647;48.072;11.616;2023-11-21T05:18:27;94715.94;;;6.49;88.05
9225;BME280;4647;48.072;11.616;2023-11-21T05:20:56;94717.47;;;6.46;88.07
9225;BME280;4647;48.072;11.616;2023-11-21T05:23:30;94728.22;;;6.50;87.98
9225;BME280;4647;48.072;11.616;2023-11-21T05:26:02;94719.84;;;6.40;87.57
9225;BME280;4647;48.072;11.616;2023-11-21T05:28:31;94715.22;;;6.41;87.67
9225;BME280;4647;48.072;11.616;2023-11-21T05:31:01;94704.47;;;6.37;87.41
9225;BME280;4647;48.072;11.616;2023-11-21T05:33:29;94730.53;;;6.47;88.21
9225;BME280;4647;48.072;11.616;2023-11-21T05:35:59;94733.19;;;6.51;88.12
9225;BME280;4647;48.072;11.616;2023-11-21T05:38:34;94730.19;;;6.45;87.99
9225;BME280;4647;48.072;11.616;2023-11-21T05:41:04;94735.28;;;6.29;88.38
9225;BME280;4647;48.072;11.616;2023-11-21T05:43:34;94735.16;;;6.47;88.06
9225;BME280;4647;48.072;11.616;2023-11-21T05:46:06;94732.91;;;6.42;88.04
9225;BME280;4647;48.072;11.616;2023-11-21T05:48:35;94727.13;;;6.43;88.00
9225;BME280;4647;48.072;11.616;2023-11-21T05:51:11;94749.31;;;6.55;87.93
9225;BME280;4647;48.072;11.616;2023-11-21T05:53:45;94734.41;;;6.46;88.69
9225;BME280;4647;48.072;11.616;2023-11-21T05:56:13;94746.50;;;6.72;86.97
9225;BME280;4647;48.072;11.616;2023-11-21T05:58:43;94733.97;;;6.52;87.59
9225;BME280;4647;48.072;11.616;2023-11-21T06:01:12;94746.66;;;6.51;88.69
9225;BME280;4647;48.072;11.616;2023-11-21T06:03:40;94750.44;;;6.57;88.62
9225;BME280;4647;48.072;11.616;2023-11-21T06:06:09;94752.00;;;6.55;88.50
9225;BME280;4647;48.072;11.616;2023-11-21T06:08:39;94759.44;;;6.40;89.24
9225;BME280;4647;48.072;11.616;2023-11-21T06:11:10;94754.03;;;6.43;89.24
9225;BME280;4647;48.072;11.616;2023-11-21T06:13:39;94753.22;;;6.46;89.14
9225;BME280;4647;48.072;11.616;2023-11-21T06:16:11;94747.91;;;6.36;89.07
9225;BME280;4647;48.072;11.616;2023-11-21T06:18:46;94769.81;;;6.34;89.85
9225;BME280;4647;48.072;11.616;2023-11-21T06:21:16;94765.97;;;6.39;89.60
9225;BME280;4647;48.072;11.616;2023-11-21T06:23:45;94762.47;;;6.45;89.18
9225;BME280;4647;48.072;11.616;2023-11-21T06:26:18;94772.34;;;6.59;88.89
9225;BME280;4647;48.072;11.616;2023-11-21T06:28:47;94772.72;;;6.61;88.37
9225;BME280;4647;48.072;11.616;2023-11-21T06:31:16;94769.63;;;6.66;88.25
9225;BME280;4647;48.072;11.616;2023-11-21T06:33:45;94773.84;;;6.67;87.37
9225;BME280;4647;48.072;11.616;2023-11-21T06:36:13;94771.91;;;6.68;87.69
9225;BME280;4647;48.072;11.616;2023-11-21T06:38:42;94774.22;;;6.69;87.40
9225;BME280;4647;48.072;11.616;2023-11-21T06:41:11;94777.03;;;6.52;88.25
9225;BME280;4647;48.072;11.616;2023-11-21T06:43:43;94785.38;;;6.68;87.56
9225;BME280;4647;48.072;11.616;2023-11-21T06:46:12;94783.84;;;6.67;87.49
9225;BME280;4647;48.072;11.616;2023-11-21T06:48:42;94786.81;;;6.80;87.11
9225;BME280;4647;48.072;11.616;2023-11-21T06:51:14;94796.47;;;6.73;86.81
9225;BME280;4647;48.072;11.616;2023-11-21T06:53:43;94792.50;;;6.92;85.88
9225;BME280;4647;48.072;11.616;2023-11-21T06:56:18;94786.41;;;6.81;86.40
9225;BME280;4647;48.072;11.616;2023-11-21T06:58:53;94796.91;;;6.68;86.27
9225;BME280;4647;48.072;11.616;2023-11-21T07:01:25;94800.72;;;6.71;86.17
9225;BME280;4647;48.072;11.616;2023-11-21T07:04:14;94796.03;;;6.78;85.60
9225;BME280;4647;48.072;11.616;2023-11-21T07:06:46;94802.16;;;6.83;86.12
9225;BME280;4647;48.072;11.616;2023-11-21T07:09:15;94808.59;;;6.96;85.42
9225;BME280;4647;48.072;11.616;2023-11-21T07:11:48;94807.91;;;6.85;85.67
9225;BME280;4647;48.072;11.616;2023-11-21T07:14:20;94807.53;;;6.83;85.45
9225;BME280;4647;48.072;11.616;2023-11-21T07:16:49;94816.38;;;6.87;85.44
9225;BME280;4647;48.072;11.616;2023-11-21T07:19:21;94807.47;;;6.93;85.11
9225;BME280;4647;48.072;11.616;2023-11-21T07:21:50;94807.09;;;6.95;84.95
9225;BME280;4647;48.072;11.616;2023-11-21T07:24:25;94810.59;;;6.88;84.61
9225;BME280;4647;48.072;11.616;2023-11-21T07:26:56;94810.22;;;6.90;84.44
9225;BME280;4647;48.072;11.616;2023-11-21T07:29:36;94826.66;;;6.99;84.43
9225;BME280;4647;48.072;11.616;2023-11-21T07:32:20;94825.13;;;6.98;83.87
9225;BME280;4647;48.072;11.616;2023-11-21T07:34:48;94825.91;;;6.98;83.72
9225;BME280;4647;48.072;11.616;2023-11-21T07:37:17;94819.34;;;6.99;83.79
9225;BME280;4647;48.072;11.616;2023-11-21T07:40:05;94833.19;;;7.01;83.31
9225;BME280;4647;48.072;11.616;2023-11-21T07:42:35;94826.91;;;7.15;82.72
9225;BME280;4647;48.072;11.616;2023-11-21T07:45:07;94824.53;;;7.24;82.97
9225;BME280;4647;48.072;11.616;2023-11-21T07:47:36;94830.16;;;7.41;82.43
9225;BME280;4647;48.072;11.616;2023-11-21T07:50:07;94834.66;;;7.51;81.48
9225;BME280;4647;48.072;11.616;2023-11-21T07:52:39;94830.38;;;7.57;80.93
9225;BME280;4647;48.072;11.616;2023-11-21T07:55:09;94831.91;;;7.58;80.90
9225;BME280;4647;48.072;11.616;2023-11-21T07:57:41;94829.59;;;7.56;80.62
9225;BME280;4647;48.072;11.616;2023-11-21T08:00:16;94827.56;;;7.67;80.39
9225;BME280;4647;48.072;11.616;2023-11-21T08:02:50;94822.91;;;7.72;79.78
9225;BME280;4647;48.072;11.616;2023-11-21T08:05:23;94815.13;;;7.81;79.10
9225;BME280;4647;48.072;11.616;2023-11-21T08:07:55;94821.81;;;7.99;78.87
9225;BME280;4647;48.072;11.616;2023-11-21T08:10:23;94823.69;;;8.02;78.39
9225;BME280;4647;48.072;11.616;2023-11-21T08:12:52;94832.69;;;7.92;79.22
9225;BME280;4647;48.072;11.616;2023-11-21T08:15:24;94835.22;;;8.07;78.34
9225;BME280;4647;48.072;11.616;2023-11-21T08:17:52;94836.09;;;7.96;77.68
9225;BME280;4647;48.072;11.616;2023-11-21T08:20:29;94830.19;;;8.09;77.22
9225;BME280;4647;48.072;11.616;2023-11-21T08:23:08;94834.09;;;7.70;78.44
9225;BME280;4647;48.072;11.616;2023-11-21T08:25:37;94836.38;;;7.72;79.02
9225;BME280;4647;48.072;11.616;2023-11-21T08:28:07;94821.44;;;7.97;77.10
9225;BME280;4647;48.072;11.616;2023-11-21T08:30:38;94829.28;;;7.88;77.87
9225;BME280;4647;48.072;11.616;2023-11-21T08:33:07;94822.94;;;7.68;78.31
9225;BME280;4647;48.072;11.616;2023-11-21T08:35:39;94816.56;;;7.51;79.08
9225;BME280;4647;48.072;11.616;2023-11-21T08:38:07;94831.75;;;7.72;78.66
9225;BME280;4647;48.072;11.616;2023-11-21T08:40:36;94828.50;;;7.88;77.69
9225;BME280;4647;48.072;11.616;2023-11-21T08:43:05;94830.06;;;7.85;78.56
9225;BME280;4647;48.072;11.616;2023-11-21T08:45:36;94827.28;;;7.92;78.43
9225;BME280;4647;48.072;11.616;2023-11-21T08:48:11;94826.03;;;8.00;77.60
9225;BME280;4647;48.072;11.616;2023-11-21T08:50:41;94824.69;;;7.85;77.00
9225;BME280;4647;48.072;11.616;2023-11-21T08:53:18;94825.50;;;7.79;77.85
9225;BME280;4647;48.072;11.616;2023-11-21T08:55:47;94815.69;;;7.61;77.94
9225;BME280;4647;48.072;11.616;2023-11-21T08:58:18;94828.47;;;7.91;77.29
9225;BME280;4647;48.072;11.616;2023-11-21T09:00:51;94834.50;;;7.68;78.72
9225;BME280;4647;48.072;11.616;2023-11-21T09:03:24;94835.56;;;7.75;78.46
9225;BME280;4647;48.072;11.616;2023-11-21T09:05:57;94833.59;;;7.79;78.37
9225;BME280;4647;48.072;11.616;2023-11-21T09:08:30;94830.88;;;7.82;77.16
9225;BME280;4647;48.072;11.616;2023-11-21T09:11:00;94837.78;;;7.87;77.78
9225;BME280;4647;48.072;11.616;2023-11-21T09:13:30;94840.31;;;7.97;76.91
9225;BME280;4647;48.072;11.616;2023-11-21T09:16:02;94850.31;;;8.00;76.81
9225;BME280;4647;48.072;11.616;2023-11-21T09:18:34;94854.84;;;8.11;77.35
9225;BME280;4647;48.072;11.616;2023-11-21T09:21:08;94860.69;;;8.06;76.80
9225;BME280;4647;48.072;11.616;2023-11-21T09:23:38;94860.03;;;8.25;76.02
9225;BME280;4647;48.072;11.616;2023-11-21T09:26:09;94872.06;;;8.20;76.75
9225;BME280;4647;48.072;11.616;2023-11-21T09:28:39;94856.75;;;8.10;76.10
9225;BME280;4647;48.072;11.616;2023-11-21T09:31:14;94863.00;;;8.04;76.15
9225;BME280;4647;48.072;11.616;2023-11-21T09:33:57;94873.72;;;8.11;77.19
9225;BME280;4647;48.072;11.616;2023-11-21T09:36:28;94854.75;;;8.52;74.74
9225;BME280;4647;48.072;11.616;2023-11-21T09:38:58;94861.63;;;8.56;74.82
9225;BME280;4647;48.072;11.616;2023-11-21T09:41:40;94887.78;;;8.29;76.73
9225;BME280;4647;48.072;11.616;2023-11-21T09:44:14;94878.53;;;8.60;74.97
9225;BME280;4647;48.072;11.616;2023-11-21T09:46:48;94880.94;;;8.51;74.93
9225;BME280;4647;48.072;11.616;2023-11-21T09:49:24;94856.97;;;8.23;76.20
9225;BME280;4647;48.072;11.616;2023-11-21T09:52:01;94873.47;;;8.63;74.29
9225;BME280;4647;48.072;11.616;2023-11-21T09:54:36;94869.56;;;8.67;74.63
9225;BME280;4647;48.072;11.616;2023-11-21T09:57:08;94872.13;;;8.78;74.24
9225;BME280;4647;48.072;11.616;2023-11-21T09:59:38;94861.72;;;9.03;73.62
9225;BME280;4647;48.072;11.616;2023-11-21T10:02:12;94873.06;;;9.18;73.60
9225;BME280;4647;48.072;11.616;2023-11-21T10:04:47;94857.03;;;8.80;72.78
9225;BME280;4647;48.072;11.616;2023-11-21T10:07:21;94876.94;;;8.63;74.53
9225;BME280;4647;48.072;11.616;2023-11-21T10:09:51;94859.78;;;8.77;74.55
9225;BME280;4647;48.072;11.616;2023-11-21T10:12:37;94870.97;;;8.75;73.00
9225;BME280;4647;48.072;11.616;2023-11-21T10:15:08;94861.72;;;8.76;72.76
9225;BME280;4647;48.072;11.616;2023-11-21T10:17:47;94858.50;;;8.58;74.81
9225;BME280;4647;48.072;11.616;2023-11-21T10:20:22;94867.47;;;9.05;73.65
9225;BME280;4647;48.072;11.616;2023-11-21T10:22:57;94864.88;;;9.21;72.29
9225;BME280;4647;48.072;11.616;2023-11-21T10:25:30;94864.63;;;8.89;72.68
9225;BME280;4647;48.072;11.616;2023-11-21T10:28:02;94869.66;;;8.87;72.79
9225;BME280;4647;48.072;11.616;2023-11-21T10:30:33;94857.47;;;8.75;72.69
9225;BME280;4647;48.072;11.616;2023-11-21T10:33:06;94845.59;;;8.69;72.63
9225;BME280;4647;48.072;11.616;2023-11-21T10:35:47;94867.44;;;8.82;73.67
9225;BME280;4647;48.072;11.616;2023-11-21T10:38:16;94868.03;;;8.93;72.17
9225;BME280;4647;48.072;11.616;2023-11-21T10:40:47;94857.03;;;8.53;72.58
9225;BME280;4647;48.072;11.616;2023-11-21T10:43:18;94877.53;;;8.78;73.35
9225;BME280;4647;48.072;11.616;2023-11-21T10:45:50;94877.09;;;9.06;72.10
9225;BME280;4647;48.072;11.616;2023-11-21T10:48:29;94847.88;;;8.98;71.92
9225;BME280;4647;48.072;11.616;2023-11-21T10:51:11;94856.19;;;9.10;71.93
9225;BME280;4647;48.072;11.616;2023-11-21T10:53:51;94872.06;;;9.32;71.06
9225;BME280;4647;48.072;11.616;2023-11-21T10:56:23;94872.56;;;9.50;70.00
9225;BME280;4647;48.072;11.616;2023-11-21T10:59:16;94870.28;;;9.45;70.49
9225;BME280;4647;48.072;11.616;2023-11-21T11:01:46;94873.72;;;9.49;69.20
9225;BME280;4647;48.072;11.616;2023-11-21T11:07:03;94869.00;;;9.76;69.06
9225;BME280;4647;48.072;11.616;2023-11-21T11:09:37;94873.31;;;9.50;70.29
9225;BME280;4647;48.072;11.616;2023-11-21T11:12:07;94873.66;;;9.76;69.87
9225;BME280;4647;48.072;11.616;2023-11-21T11:14:42;94856.56;;;9.36;70.26
9225;BME280;4647;48.072;11.616;2023-11-21T11:17:19;94863.06;;;9.15;71.45
9225;BME280;4647;48.072;11.616;2023-11-21T11:20:02;94865.63;;;8.99;72.10
9225;BME280;4647;48.072;11.616;2023-11-21T11:22:46;94873.25;;;9.31;71.41
9225;BME280;4647;48.072;11.616;2023-11-21T11:25:49;94871.63;;;9.80;70.09
9225;BME280;4647;48.072;11.616;2023-11-21T11:28:32;94870.38;;;9.84;70.10
9225;BME280;4647;48.072;11.616;2023-11-21T11:31:17;94877.25;;;9.89;69.90
9225;BME280;4647;48.072;11.616;2023-11-21T11:33:55;94865.69;;;10.08;69.14
9225;BME280;4647;48.072;11.616;2023-11-21T11:36:40;94845.84;;;10.15;68.46
9225;BME280;4647;48.072;11.616;2023-11-21T11:39:35;94865.75;;;10.05;67.81
9225;BME280;4647;48.072;11.616;2023-11-21T11:42:07;94852.78;;;9.96;67.49
9225;BME280;4647;48.072;11.616;2023-11-21T11:44:53;94841.53;;;9.78;67.94
9225;BME280;4647;48.072;11.616;2023-11-21T11:47:25;94852.94;;;10.29;68.16
9225;BME280;4647;48.072;11.616;2023-11-21T11:50:17;94843.41;;;10.01;67.23
9225;BME280;4647;48.072;11.616;2023-11-21T11:53:20;94862.91;;;9.72;69.13
9225;BME280;4647;48.072;11.616;2023-11-21T11:56:21;94862.22;;;10.08;68.80
9225;BME280;4647;48.072;11.616;2023-11-21T11:59:03;94856.94;;;10.01;69.06
9225;BME280;4647;48.072;11.616;2023-11-21T12:01:47;94853.69;;;10.09;69.02
9225;BME280;4647;48.072;11.616;2023-11-21T12:04:23;94850.97;;;9.90;68.50
9225;BME280;4647;48.072;11.616;2023-11-21T12:07:00;94843.44;;;10.21;67.78
9225;BME280;4647;48.072;11.616;2023-11-21T12:09:37;94854.84;;;9.89;68.10
9225;BME280;4647;48.072;11.616;2023-11-21T12:12:14;94845.94;;;9.68;68.15
9225;BME280;4647;48.072;11.616;2023-11-21T12:14:45;94856.47;;;9.63;68.47
9225;BME280;4647;48.072;11.616;2023-11-21T12:17:36;94852.63;;;9.40;68.71
9225;BME280;4647;48.072;11.616;2023-11-21T12:20:08;94857.72;;;9.58;68.36
9225;BME280;4647;48.072;11.616;2023-11-21T12:23:05;94856.00;;;9.68;68.77
9225;BME280;4647;48.072;11.616;2023-11-21T12:25:35;94866.72;;;9.75;68.53
9225;BME280;4647;48.072;11.616;2023-11-21T12:28:08;94861.00;;;9.69;67.85
9225;BME280;4647;48.072;11.616;2023-11-21T12:30:41;94857.59;;;9.42;69.60
9225;BME280;4647;48.072;11.616;2023-11-21T12:33:10;94864.25;;;9.61;68.84
9225;BME280;4647;48.072;11.616;2023-11-21T12:35:43;94853.31;;;9.44;70.13
9225;BME280;4647;48.072;11.616;2023-11-21T12:38:15;94843.53;;;9.74;68.75
9225;BME280;4647;48.072;11.616;2023-11-21T12:40:47;94856.69;;;9.52;68.76
9225;BME280;4647;48.072;11.616;2023-11-21T12:43:28;94863.41;;;9.64;69.68
9225;BME280;4647;48.072;11.616;2023-11-21T12:46:07;94851.34;;;9.68;68.86
9225;BME280;4647;48.072;11.616;2023-11-21T12:48:41;94856.81;;;9.65;69.02
9225;BME280;4647;48.072;11.616;2023-11-21T12:51:14;94863.09;;;9.81;69.31
9225;BME280;4647;48.072;11.616;2023-11-21T12:53:48;94865.31;;;9.87;68.20
9225;BME280;4647;48.072;11.616;2023-11-21T12:56:30;94861.31;;;9.95;68.21
9225;BME280;4647;48.072;11.616;2023-11-21T12:59:05;94862.38;;;10.01;67.54
9225;BME280;4647;48.072;11.616;2023-11-21T13:01:43;94858.66;;;9.91;66.88
9225;BME280;4647;48.072;11.616;2023-11-21T13:04:14;94856.44;;;9.86;67.35
9225;BME280;4647;48.072;11.616;2023-11-21T13:06:44;94863.19;;;9.98;67.39
9225;BME280;4647;48.072;11.616;2023-11-21T13:09:27;94871.66;;;10.00;67.81
9225;BME280;4647;48.072;11.616;2023-11-21T13:12:00;94844.84;;;9.85;67.65
9225;BME280;4647;48.072;11.616;2023-11-21T13:14:33;94864.84;;;9.72;67.56
9225;BME280;4647;48.072;11.616;2023-11-21T13:17:19;94869.13;;;9.46;68.83
9225;BME280;4647;48.072;11.616;2023-11-21T13:19:52;94864.31;;;9.34;69.22
9225;BME280;4647;48.072;11.616;2023-11-21T13:22:28;94878.06;;;9.43;69.37
9225;BME280;4647;48.072;11.616;2023-11-21T13:25:11;94877.81;;;9.10;71.43
9225;BME280;4647;48.072;11.616;2023-11-21T13:27:42;94882.72;;;8.35;77.76
9225;BME280;4647;48.072;11.616;2023-11-21T13:30:17;94887.13;;;7.80;82.26
9225;BME280;4647;48.072;11.616;2023-11-21T13:32:49;94860.63;;;7.34;83.56
9225;BME280;4647;48.072;11.616;2023-11-21T13:35:23;94871.38;;;7.37;84.41
9225;BME280;4647;48.072;11.616;2023-11-21T13:38:06;94880.69;;;7.26;86.06
9225;BME280;4647;48.072;11.616;2023-11-21T13:41:00;94882.19;;;7.30;86.16
9225;BME280;4647;48.072;11.616;2023-11-21T13:43:41;94878.72;;;7.75;85.56
9225;BME280;4647;48.072;11.616;2023-11-21T13:46:22;94882.03;;;7.89;83.51
9225;BME280;4647;48.072;11.616;2023-11-21T13:48:50;94881.09;;;8.07;82.95
9225;BME280;4647;48.072;11.616;2023-11-21T13:51:21;94884.25;;;8.32;81.68
9225;BME280;4647;48.072;11.616;2023-11-21T13:53:59;94888.56;;;8.26;80.79